createdAt,value
2022-07-29T00:01:32.313Z,1
2022-07-29T00:04:59.719Z,0
2022-07-29T00:06:43.422Z,1
2022-07-29T00:08:27.128Z,1
2022-07-29T00:10:10.837Z,1
2022-07-29T00:11:54.515Z,1
2022-07-29T00:13:38.230Z,1
2022-07-29T00:15:21.930Z,1
2022-07-29T00:17:05.626Z,1
2022-07-29T00:18:49.333Z,0
2022-07-29T00:20:33.040Z,0
2022-07-29T00:22:16.732Z,1
2022-07-29T00:24:00.443Z,0
2022-07-29T00:25:44.138Z,1
2022-07-29T00:27:27.843Z,1
2022-07-29T00:29:11.548Z,0
2022-07-29T00:30:55.247Z,0
2022-07-29T00:32:38.951Z,1
2022-07-29T00:34:22.651Z,1
2022-07-29T00:36:06.362Z,1
2022-07-29T00:37:50.055Z,1
2022-07-29T00:39:33.757Z,1
2022-07-29T00:41:17.458Z,1
2022-07-29T00:43:01.164Z,1
2022-07-29T00:44:44.856Z,0
2022-07-29T00:46:28.567Z,0
2022-07-29T00:48:12.270Z,0
2022-07-29T00:49:55.960Z,1
2022-07-29T00:51:39.666Z,1
2022-07-29T00:53:23.367Z,1
2022-07-29T00:55:07.081Z,1
2022-07-29T00:56:50.778Z,1
2022-07-29T00:58:34.476Z,0
2022-07-29T01:00:18.182Z,1
2022-07-29T01:02:01.889Z,1
2022-07-29T01:03:45.587Z,1
2022-07-29T01:05:29.286Z,1
2022-07-29T01:07:12.991Z,1
2022-07-29T01:08:56.683Z,1
2022-07-29T01:10:40.390Z,1
2022-07-29T01:12:24.090Z,0
2022-07-29T01:14:07.794Z,1
2022-07-29T01:15:51.512Z,1
2022-07-29T01:17:35.203Z,0
2022-07-29T01:19:18.905Z,1
2022-07-29T01:21:02.630Z,0
2022-07-29T01:22:46.300Z,2
2022-07-29T01:24:30.015Z,1
2022-07-29T01:26:13.742Z,0
2022-07-29T01:27:57.411Z,0
2022-07-29T01:29:41.113Z,1
2022-07-29T01:31:24.815Z,0
2022-07-29T01:33:08.514Z,1
2022-07-29T01:34:52.225Z,1
2022-07-29T01:36:35.921Z,1
2022-07-29T01:38:19.630Z,1
2022-07-29T01:40:03.336Z,0
2022-07-29T01:41:47.031Z,0
2022-07-29T01:43:30.725Z,0
2022-07-29T01:45:14.433Z,1
2022-07-29T01:46:58.135Z,1
2022-07-29T01:48:41.846Z,1
2022-07-29T01:50:25.531Z,0
2022-07-29T01:52:09.237Z,1
2022-07-29T01:53:52.950Z,0
2022-07-29T01:55:36.640Z,1
2022-07-29T01:57:20.344Z,0
2022-07-29T01:59:04.053Z,0
2022-07-29T02:00:47.779Z,1
2022-07-29T02:02:31.450Z,0
2022-07-29T02:04:15.154Z,1
2022-07-29T02:05:58.858Z,0
2022-07-29T02:07:42.572Z,0
2022-07-29T02:11:09.964Z,1
2022-07-29T02:12:53.669Z,0
2022-07-29T02:14:37.370Z,0
2022-07-29T02:16:21.066Z,1
2022-07-29T02:18:04.783Z,1
2022-07-29T02:19:48.470Z,1
2022-07-29T02:21:32.181Z,1
2022-07-29T02:23:15.875Z,1
2022-07-29T02:24:59.584Z,0
2022-07-29T02:26:43.287Z,1
2022-07-29T02:30:10.699Z,1
2022-07-29T02:31:54.394Z,0
2022-07-29T02:33:38.092Z,0
2022-07-29T02:35:21.792Z,1
2022-07-29T02:37:05.505Z,1
2022-07-29T02:38:49.200Z,0
2022-07-29T02:40:32.905Z,1
2022-07-29T02:42:16.597Z,1
2022-07-29T02:44:00.306Z,0
2022-07-29T02:45:44.009Z,1
2022-07-29T02:47:27.706Z,0
2022-07-29T02:49:11.419Z,1
2022-07-29T02:50:55.114Z,1
2022-07-29T02:52:38.834Z,1
2022-07-29T02:54:22.514Z,1
2022-07-29T02:56:06.218Z,0
2022-07-29T02:57:49.923Z,1
2022-07-29T02:59:33.627Z,0
2022-07-29T03:01:17.332Z,1
2022-07-29T03:03:01.024Z,1
2022-07-29T03:04:44.736Z,0
2022-07-29T03:06:28.435Z,0
2022-07-29T03:08:12.131Z,0
2022-07-29T03:11:39.534Z,1
2022-07-29T03:13:23.246Z,1
2022-07-29T03:15:06.948Z,0
2022-07-29T03:16:50.647Z,1
2022-07-29T03:18:34.348Z,1
2022-07-29T03:20:18.053Z,1
2022-07-29T03:22:01.758Z,2
2022-07-29T03:23:45.470Z,3
2022-07-29T03:25:29.163Z,2
2022-07-29T03:27:12.870Z,3
2022-07-29T03:28:56.564Z,3
2022-07-29T03:30:40.264Z,3
2022-07-29T03:32:23.966Z,4
2022-07-29T03:34:07.686Z,4
2022-07-29T03:37:35.081Z,7
2022-07-29T03:39:18.781Z,8
2022-07-29T03:41:02.476Z,10
2022-07-29T03:42:46.180Z,11
2022-07-29T03:44:29.891Z,14
2022-07-29T03:46:13.595Z,18
2022-07-29T03:47:57.288Z,23
2022-07-29T03:49:40.988Z,28
2022-07-29T03:51:24.696Z,31
2022-07-29T03:53:08.388Z,37
2022-07-29T03:54:52.093Z,41
2022-07-29T03:58:19.494Z,50
2022-07-29T04:00:03.192Z,60
2022-07-29T04:01:46.897Z,70
2022-07-29T04:03:30.602Z,82
2022-07-29T04:05:14.300Z,96
2022-07-29T04:06:57.999Z,112
2022-07-29T04:08:41.704Z,128
2022-07-29T04:10:25.410Z,136
2022-07-29T04:13:52.805Z,165
2022-07-29T04:15:36.516Z,174
2022-07-29T04:17:20.207Z,179
2022-07-29T04:19:03.905Z,188
2022-07-29T04:20:47.606Z,200
2022-07-29T04:22:31.318Z,213
2022-07-29T04:24:15.019Z,248
2022-07-29T04:25:58.715Z,293
2022-07-29T04:27:42.418Z,270
2022-07-29T04:29:26.126Z,270
2022-07-29T04:31:09.833Z,277
2022-07-29T04:32:53.525Z,285
2022-07-29T04:34:37.224Z,376
2022-07-29T04:36:20.929Z,368
2022-07-29T04:38:04.646Z,378
2022-07-29T04:39:48.325Z,432
2022-07-29T04:41:32.030Z,512
2022-07-29T04:43:15.751Z,547
2022-07-29T04:44:59.436Z,577
2022-07-29T04:46:43.138Z,609
2022-07-29T04:50:10.552Z,673
2022-07-29T04:51:54.258Z,707
2022-07-29T04:53:37.949Z,738
2022-07-29T04:55:21.651Z,744
2022-07-29T04:57:05.353Z,744
2022-07-29T04:58:49.054Z,744
2022-07-29T05:00:32.762Z,711
2022-07-29T05:02:16.465Z,745
2022-07-29T05:04:00.161Z,744
2022-07-29T05:05:43.862Z,744
2022-07-29T05:07:27.563Z,736
2022-07-29T05:09:11.273Z,745
2022-07-29T05:10:54.970Z,744
2022-07-29T05:12:38.669Z,744
2022-07-29T05:14:22.372Z,744
2022-07-29T05:16:06.077Z,744
2022-07-29T05:17:49.769Z,745
2022-07-29T05:19:33.472Z,744
2022-07-29T05:21:17.184Z,745
2022-07-29T05:23:00.882Z,744
2022-07-29T05:24:44.583Z,743
2022-07-29T05:26:28.285Z,743
2022-07-29T05:28:11.989Z,744
2022-07-29T05:29:55.704Z,744
2022-07-29T05:31:39.391Z,745
2022-07-29T05:33:23.109Z,745
2022-07-29T05:35:06.800Z,744
2022-07-29T05:36:50.504Z,745
2022-07-29T05:38:34.208Z,745
2022-07-29T05:40:17.901Z,744
2022-07-29T05:42:01.605Z,745
2022-07-29T05:43:45.307Z,744
2022-07-29T05:45:29.006Z,745
2022-07-29T05:47:12.716Z,746
2022-07-29T05:48:56.431Z,744
2022-07-29T05:50:40.108Z,744
2022-07-29T05:52:23.817Z,745
2022-07-29T05:54:07.522Z,745
2022-07-29T05:55:51.221Z,744
2022-07-29T05:57:34.923Z,745
2022-07-29T05:59:18.626Z,745
2022-07-29T06:01:02.339Z,744
2022-07-29T06:02:46.032Z,744
2022-07-29T06:04:29.731Z,745
2022-07-29T06:06:13.450Z,745
2022-07-29T06:07:57.144Z,744
2022-07-29T06:09:40.838Z,745
2022-07-29T06:11:24.540Z,745
2022-07-29T06:13:08.245Z,744
2022-07-29T06:14:51.945Z,744
2022-07-29T06:16:35.663Z,745
2022-07-29T06:20:03.058Z,744
2022-07-29T06:21:46.763Z,745
2022-07-29T06:23:30.472Z,746
2022-07-29T06:25:14.162Z,746
2022-07-29T06:26:57.869Z,736
2022-07-29T06:28:41.566Z,745
2022-07-29T06:30:25.275Z,746
2022-07-29T06:32:08.965Z,746
2022-07-29T06:33:52.676Z,745
2022-07-29T06:35:36.380Z,746
2022-07-29T06:37:20.073Z,746
2022-07-29T06:39:03.775Z,745
2022-07-29T06:40:47.482Z,745
2022-07-29T06:42:31.182Z,746
2022-07-29T06:44:14.879Z,746
2022-07-29T06:45:58.584Z,744
2022-07-29T06:47:42.287Z,746
2022-07-29T06:49:25.994Z,746
2022-07-29T06:51:09.694Z,746
2022-07-29T06:52:53.391Z,746
2022-07-29T06:54:37.094Z,745
2022-07-29T06:56:20.790Z,746
2022-07-29T06:58:04.499Z,746
2022-07-29T06:59:48.207Z,745
2022-07-29T07:01:31.899Z,746
2022-07-29T07:03:15.608Z,746
2022-07-29T07:04:59.312Z,746
2022-07-29T07:06:43.057Z,747
2022-07-29T07:08:26.715Z,746
2022-07-29T07:10:10.443Z,746
2022-07-29T07:11:54.113Z,745
2022-07-29T07:13:37.826Z,747
2022-07-29T07:15:21.516Z,747
2022-07-29T07:17:05.228Z,746
2022-07-29T07:18:48.923Z,745
2022-07-29T07:20:32.618Z,746
2022-07-29T07:22:16.326Z,747
2022-07-29T07:24:00.077Z,746
2022-07-29T07:25:43.731Z,746
2022-07-29T07:27:27.430Z,747
2022-07-29T07:29:11.124Z,745
2022-07-29T07:30:54.832Z,747
2022-07-29T07:32:38.537Z,745
2022-07-29T07:34:22.235Z,746
2022-07-29T07:36:05.934Z,746
2022-07-29T07:37:49.635Z,746
2022-07-29T07:39:33.339Z,746
2022-07-29T07:41:17.048Z,747
2022-07-29T07:43:00.740Z,746
2022-07-29T07:44:44.447Z,746
2022-07-29T07:46:28.155Z,746
2022-07-29T07:48:11.849Z,747
2022-07-29T07:49:55.556Z,746
2022-07-29T07:51:39.257Z,745
2022-07-29T07:53:22.962Z,746
2022-07-29T07:55:06.669Z,746
2022-07-29T07:56:50.356Z,746
2022-07-29T07:58:34.067Z,747
2022-07-29T08:00:17.769Z,746
2022-07-29T08:02:01.472Z,747
2022-07-29T08:03:45.172Z,746
2022-07-29T08:05:28.884Z,737
2022-07-29T08:07:12.578Z,746
2022-07-29T08:08:56.287Z,746
2022-07-29T08:10:39.980Z,747
2022-07-29T08:12:23.684Z,747
2022-07-29T08:14:07.390Z,747
2022-07-29T08:15:51.088Z,746
2022-07-29T08:17:34.792Z,746
2022-07-29T08:19:18.498Z,746
2022-07-29T08:21:02.199Z,746
2022-07-29T08:22:45.895Z,746
2022-07-29T08:24:29.600Z,745
2022-07-29T08:26:13.305Z,746
2022-07-29T08:27:57.009Z,746
2022-07-29T08:29:40.702Z,746
2022-07-29T08:31:24.412Z,747
2022-07-29T08:33:08.117Z,747
2022-07-29T08:34:51.812Z,746
2022-07-29T08:36:35.517Z,746
2022-07-29T08:38:19.222Z,747
2022-07-29T08:40:02.918Z,746
2022-07-29T08:41:46.627Z,746
2022-07-29T08:43:30.331Z,746
2022-07-29T08:45:14.031Z,747
2022-07-29T08:46:57.732Z,746
2022-07-29T08:48:41.429Z,746
2022-07-29T08:50:25.135Z,747
2022-07-29T08:52:08.840Z,747
2022-07-29T08:53:52.538Z,746
2022-07-29T08:55:36.245Z,745
2022-07-29T08:57:19.945Z,737
2022-07-29T08:59:03.658Z,748
2022-07-29T09:00:47.351Z,746
2022-07-29T09:02:31.046Z,746
2022-07-29T09:04:14.749Z,747
2022-07-29T09:05:58.451Z,747
2022-07-29T09:07:42.143Z,745
2022-07-29T09:09:25.858Z,747
2022-07-29T09:11:09.557Z,746
2022-07-29T09:12:53.254Z,746
2022-07-29T09:14:36.960Z,746
2022-07-29T09:16:20.657Z,747
2022-07-29T09:19:48.074Z,746
2022-07-29T09:21:31.768Z,746
2022-07-29T09:23:15.466Z,746
2022-07-29T09:24:59.178Z,745
2022-07-29T09:26:42.866Z,746
2022-07-29T09:28:26.580Z,747
2022-07-29T09:30:10.290Z,745
2022-07-29T09:31:53.984Z,746
2022-07-29T09:33:37.685Z,746
2022-07-29T09:35:21.382Z,747
2022-07-29T09:37:05.084Z,746
2022-07-29T09:38:48.794Z,746
2022-07-29T09:40:32.490Z,747
2022-07-29T09:42:16.199Z,747
2022-07-29T09:43:59.911Z,738
2022-07-29T09:45:43.617Z,746
2022-07-29T09:47:27.307Z,747
2022-07-29T09:49:11.006Z,747
2022-07-29T09:50:54.706Z,746
2022-07-29T09:52:38.413Z,747
2022-07-29T09:54:22.103Z,748
2022-07-29T09:56:05.848Z,748
2022-07-29T09:57:49.512Z,744
2022-07-29T09:59:33.215Z,747
2022-07-29T10:01:16.914Z,746
2022-07-29T10:03:00.612Z,745
2022-07-29T10:04:44.323Z,746
2022-07-29T10:06:28.025Z,747
2022-07-29T10:08:11.722Z,747
2022-07-29T10:09:55.430Z,746
2022-07-29T10:11:39.133Z,747
2022-07-29T10:13:22.830Z,748
2022-07-29T10:15:06.534Z,747
2022-07-29T10:16:50.237Z,745
2022-07-29T10:18:33.959Z,747
2022-07-29T10:20:17.645Z,747
2022-07-29T10:22:01.341Z,746
2022-07-29T10:23:45.049Z,747
2022-07-29T10:25:28.755Z,747
2022-07-29T10:27:12.453Z,747
2022-07-29T10:28:56.161Z,747
2022-07-29T10:30:39.858Z,724
2022-07-29T10:32:23.552Z,697
2022-07-29T10:34:07.261Z,678
2022-07-29T10:35:50.955Z,660
2022-07-29T10:37:34.678Z,623
2022-07-29T10:39:18.365Z,595
2022-07-29T10:41:02.081Z,558
2022-07-29T10:42:45.793Z,509
2022-07-29T10:44:29.467Z,456
2022-07-29T10:46:13.163Z,408
2022-07-29T10:47:56.903Z,368
2022-07-29T10:49:40.574Z,314
2022-07-29T10:51:24.291Z,265
2022-07-29T10:53:07.980Z,222
2022-07-29T10:54:51.714Z,191
2022-07-29T10:56:35.428Z,170
2022-07-29T10:58:19.128Z,158
2022-07-29T11:00:02.809Z,150
2022-07-29T11:01:46.489Z,150
2022-07-29T11:03:30.191Z,152
2022-07-29T11:05:13.903Z,155
2022-07-29T11:06:57.599Z,157
2022-07-29T11:08:41.329Z,156
2022-07-29T11:10:25.027Z,188
2022-07-29T11:12:08.703Z,240
2022-07-29T11:13:52.418Z,286
2022-07-29T11:15:36.119Z,329
2022-07-29T11:17:19.855Z,373
2022-07-29T11:19:03.516Z,419
2022-07-29T11:20:47.249Z,461
2022-07-29T11:22:30.941Z,487
2022-07-29T11:24:14.612Z,503
2022-07-29T11:25:58.341Z,525
2022-07-29T11:27:42.038Z,552
2022-07-29T11:29:25.748Z,589
2022-07-29T11:31:09.476Z,624
2022-07-29T11:32:53.157Z,660
2022-07-29T11:34:36.835Z,707
2022-07-29T11:36:20.550Z,738
2022-07-29T11:38:04.237Z,747
2022-07-29T11:39:47.968Z,746
2022-07-29T11:41:31.651Z,747
2022-07-29T11:43:15.377Z,747
2022-07-29T11:44:59.064Z,746
2022-07-29T11:46:42.777Z,747
2022-07-29T11:48:26.449Z,747
2022-07-29T11:50:10.201Z,738
2022-07-29T11:51:53.861Z,746
2022-07-29T11:53:37.564Z,747
2022-07-29T11:55:21.301Z,747
2022-07-29T11:57:05.006Z,747
2022-07-29T11:58:48.666Z,746
2022-07-29T12:00:32.370Z,746
2022-07-29T12:02:16.079Z,746
2022-07-29T12:03:59.777Z,745
2022-07-29T12:05:43.477Z,747
2022-07-29T12:07:27.183Z,746
2022-07-29T12:09:10.882Z,747
2022-07-29T12:10:54.608Z,746
2022-07-29T12:12:38.288Z,747
2022-07-29T12:14:21.988Z,747
2022-07-29T12:16:05.708Z,747
2022-07-29T12:17:49.409Z,745
2022-07-29T12:19:33.112Z,747
2022-07-29T12:21:16.830Z,747
2022-07-29T12:23:00.510Z,747
2022-07-29T12:24:44.213Z,747
2022-07-29T12:26:27.904Z,747
2022-07-29T12:28:11.647Z,747
2022-07-29T12:29:55.335Z,746
2022-07-29T12:31:39.014Z,711
2022-07-29T12:33:22.722Z,682
2022-07-29T12:35:06.419Z,654
2022-07-29T12:36:50.124Z,631
2022-07-29T12:38:33.846Z,613
2022-07-29T12:40:17.527Z,600
2022-07-29T12:42:01.221Z,597
2022-07-29T12:43:44.926Z,592
2022-07-29T12:45:28.634Z,582
2022-07-29T12:47:12.330Z,563
2022-07-29T12:48:56.045Z,543
2022-07-29T12:50:39.742Z,532
2022-07-29T12:52:23.444Z,522
2022-07-29T12:54:07.137Z,511
2022-07-29T12:55:50.845Z,497
2022-07-29T12:57:34.543Z,491
2022-07-29T12:59:18.263Z,489
2022-07-29T13:01:01.950Z,473
2022-07-29T13:02:45.660Z,453
2022-07-29T13:04:29.345Z,433
2022-07-29T13:06:13.052Z,402
2022-07-29T13:07:56.757Z,377
2022-07-29T13:09:40.454Z,330
2022-07-29T13:11:24.161Z,311
2022-07-29T13:13:07.870Z,305
2022-07-29T13:14:51.569Z,305
2022-07-29T13:16:35.272Z,317
2022-07-29T13:18:18.977Z,339
2022-07-29T13:20:02.677Z,360
2022-07-29T13:21:46.397Z,381
2022-07-29T13:23:30.116Z,400
2022-07-29T13:25:13.786Z,424
2022-07-29T13:26:57.485Z,446
2022-07-29T13:28:41.195Z,475
2022-07-29T13:30:24.886Z,520
2022-07-29T13:32:08.589Z,568
2022-07-29T13:33:52.292Z,628
2022-07-29T13:35:35.998Z,729
2022-07-29T13:37:19.696Z,747
2022-07-29T13:39:03.399Z,746
2022-07-29T13:40:47.101Z,747
2022-07-29T13:42:30.826Z,747
2022-07-29T13:44:14.508Z,746
2022-07-29T13:45:58.231Z,747
2022-07-29T13:47:41.911Z,746
2022-07-29T13:49:25.642Z,747
2022-07-29T13:51:09.321Z,747
2022-07-29T13:52:53.025Z,746
2022-07-29T13:54:36.745Z,745
2022-07-29T13:56:20.411Z,747
2022-07-29T13:58:04.117Z,747
2022-07-29T13:59:47.817Z,746
2022-07-29T14:01:31.519Z,747
2022-07-29T14:03:15.227Z,747
2022-07-29T14:04:58.931Z,745
2022-07-29T14:06:42.634Z,746
2022-07-29T14:08:26.332Z,747
2022-07-29T14:10:10.041Z,747
2022-07-29T14:11:53.747Z,746
2022-07-29T14:13:37.448Z,747
2022-07-29T14:15:21.141Z,746
2022-07-29T14:17:04.839Z,746
2022-07-29T14:18:48.551Z,746
2022-07-29T14:20:32.238Z,747
2022-07-29T14:22:15.971Z,747
2022-07-29T14:23:59.646Z,746
2022-07-29T14:25:43.359Z,747
2022-07-29T14:27:27.053Z,746
2022-07-29T14:29:10.749Z,747
2022-07-29T14:30:54.455Z,746
2022-07-29T14:32:38.159Z,747
2022-07-29T14:34:21.868Z,747
2022-07-29T14:36:05.556Z,747
2022-07-29T14:37:49.276Z,745
2022-07-29T14:39:32.978Z,746
2022-07-29T14:41:16.670Z,747
2022-07-29T14:43:00.418Z,747
2022-07-29T14:44:44.073Z,747
2022-07-29T14:46:27.769Z,746
2022-07-29T14:48:11.494Z,747
2022-07-29T14:49:55.178Z,746
2022-07-29T14:51:38.893Z,738
2022-07-29T14:53:22.581Z,747
2022-07-29T14:55:06.294Z,747
2022-07-29T14:56:49.989Z,747
2022-07-29T14:58:33.686Z,747
2022-07-29T15:00:17.398Z,747
2022-07-29T15:02:01.088Z,746
2022-07-29T15:03:44.793Z,747
2022-07-29T15:05:28.495Z,747
2022-07-29T15:07:12.193Z,747
2022-07-29T15:08:55.926Z,746
2022-07-29T15:10:39.602Z,746
2022-07-29T15:12:23.304Z,747
2022-07-29T15:14:07.009Z,747
2022-07-29T15:15:50.740Z,747
2022-07-29T15:17:34.412Z,747
2022-07-29T15:19:18.136Z,748
2022-07-29T15:21:01.821Z,747
2022-07-29T15:22:45.515Z,747
2022-07-29T15:24:29.228Z,747
2022-07-29T15:26:12.918Z,747
2022-07-29T15:27:56.619Z,747
2022-07-29T15:29:40.326Z,746
2022-07-29T15:31:24.026Z,747
2022-07-29T15:33:07.726Z,746
2022-07-29T15:34:51.443Z,747
2022-07-29T15:36:35.128Z,746
2022-07-29T15:38:18.855Z,746
2022-07-29T15:40:02.528Z,746
2022-07-29T15:41:46.245Z,746
2022-07-29T15:43:29.945Z,748
2022-07-29T15:45:13.635Z,747
2022-07-29T15:46:57.339Z,746
2022-07-29T15:48:41.051Z,746
2022-07-29T15:50:24.746Z,746
2022-07-29T15:52:08.453Z,746
2022-07-29T15:53:52.145Z,746
2022-07-29T15:55:35.847Z,747
2022-07-29T15:57:19.569Z,746
2022-07-29T15:59:03.246Z,746
2022-07-29T16:00:46.956Z,746
2022-07-29T16:02:30.651Z,738
2022-07-29T16:04:14.353Z,746
2022-07-29T16:05:58.064Z,746
2022-07-29T16:07:41.764Z,727
2022-07-29T16:09:25.476Z,704
2022-07-29T16:11:09.169Z,689
2022-07-29T16:12:52.867Z,685
2022-07-29T16:14:36.572Z,694
2022-07-29T16:16:20.281Z,704
2022-07-29T16:18:03.968Z,678
2022-07-29T16:19:47.671Z,712
2022-07-29T16:21:31.380Z,711
2022-07-29T16:23:15.079Z,710
2022-07-29T16:24:58.799Z,712
2022-07-29T16:26:42.479Z,716
2022-07-29T16:28:26.207Z,712
2022-07-29T16:30:09.896Z,695
2022-07-29T16:31:53.604Z,669
2022-07-29T16:33:37.299Z,650
2022-07-29T16:35:21.002Z,626
2022-07-29T16:37:04.698Z,595
2022-07-29T16:38:48.397Z,568
2022-07-29T16:40:32.105Z,551
2022-07-29T16:42:15.819Z,539
2022-07-29T16:43:59.505Z,534
2022-07-29T16:45:43.201Z,543
2022-07-29T16:47:26.909Z,556
2022-07-29T16:49:10.608Z,572
2022-07-29T16:50:54.301Z,580
2022-07-29T16:52:38.012Z,583
2022-07-29T16:54:21.714Z,592
2022-07-29T16:56:05.419Z,605
2022-07-29T16:57:49.132Z,650
2022-07-29T16:59:32.821Z,673
2022-07-29T17:03:00.236Z,746
2022-07-29T17:04:43.924Z,745
2022-07-29T17:06:27.634Z,746
2022-07-29T17:08:11.334Z,737
2022-07-29T17:11:38.737Z,746
2022-07-29T17:13:22.448Z,746
2022-07-29T17:15:06.153Z,746
2022-07-29T17:16:49.861Z,746
2022-07-29T17:18:33.564Z,747
2022-07-29T17:20:17.245Z,747
2022-07-29T17:22:00.955Z,745
2022-07-29T17:23:44.653Z,746
2022-07-29T17:25:28.351Z,747
2022-07-29T17:27:12.073Z,746
2022-07-29T17:28:55.767Z,746
2022-07-29T17:30:39.464Z,746
2022-07-29T17:32:23.158Z,747
2022-07-29T17:34:06.863Z,747
2022-07-29T17:35:50.568Z,746
2022-07-29T17:37:34.275Z,747
2022-07-29T17:39:17.968Z,747
2022-07-29T17:41:01.698Z,744
2022-07-29T17:42:45.376Z,746
2022-07-29T17:44:29.080Z,747
2022-07-29T17:46:12.778Z,747
2022-07-29T17:47:56.480Z,747
2022-07-29T17:49:40.180Z,746
2022-07-29T17:51:23.886Z,747
2022-07-29T17:53:07.585Z,747
2022-07-29T17:54:51.298Z,738
2022-07-29T17:56:34.995Z,746
2022-07-29T17:58:18.696Z,747
2022-07-29T18:00:02.397Z,746
2022-07-29T18:01:46.099Z,747
2022-07-29T18:03:29.818Z,746
2022-07-29T18:05:13.500Z,747
2022-07-29T18:06:57.202Z,746
2022-07-29T18:08:40.916Z,746
2022-07-29T18:10:24.619Z,746
2022-07-29T18:12:08.311Z,748
2022-07-29T18:13:52.028Z,746
2022-07-29T18:15:35.719Z,747
2022-07-29T18:17:19.425Z,748
2022-07-29T18:19:03.118Z,747
2022-07-29T18:20:46.827Z,747
2022-07-29T18:22:30.525Z,747
2022-07-29T18:24:14.224Z,747
2022-07-29T18:25:57.927Z,747
2022-07-29T18:27:41.630Z,746
2022-07-29T18:29:25.335Z,747
2022-07-29T18:31:09.034Z,747
2022-07-29T18:32:52.733Z,747
2022-07-29T18:34:36.465Z,747
2022-07-29T18:36:20.143Z,748
2022-07-29T18:38:03.843Z,746
2022-07-29T18:39:47.542Z,747
2022-07-29T18:41:31.247Z,738
2022-07-29T18:43:14.944Z,531
2022-07-29T18:44:58.652Z,418
2022-07-29T18:46:42.359Z,368
2022-07-29T18:48:26.065Z,322
2022-07-29T18:50:09.760Z,293
2022-07-29T18:51:53.453Z,252
2022-07-29T18:53:37.160Z,219
2022-07-29T18:55:20.869Z,178
2022-07-29T18:57:04.560Z,158
2022-07-29T18:58:48.265Z,140
2022-07-29T19:00:31.995Z,124
2022-07-29T19:02:15.671Z,109
2022-07-29T19:03:59.381Z,97
2022-07-29T19:05:43.070Z,86
2022-07-29T19:07:26.773Z,76
2022-07-29T19:09:10.491Z,65
2022-07-29T19:10:54.188Z,56
2022-07-29T19:12:37.907Z,48
2022-07-29T19:14:21.608Z,38
2022-07-29T19:16:05.279Z,32
2022-07-29T19:17:48.986Z,26
2022-07-29T19:19:32.696Z,22
2022-07-29T19:21:16.395Z,17
2022-07-29T19:23:00.122Z,14
2022-07-29T19:24:43.804Z,12
2022-07-29T19:26:27.494Z,10
2022-07-29T19:28:11.203Z,7
2022-07-29T19:29:54.912Z,6
2022-07-29T19:31:38.602Z,6
2022-07-29T19:33:22.318Z,4
2022-07-29T19:35:06.002Z,3
2022-07-29T19:36:49.707Z,3
2022-07-29T19:38:33.411Z,2
2022-07-29T19:40:17.110Z,2
2022-07-29T19:42:00.817Z,0
2022-07-29T19:43:44.514Z,1
2022-07-29T19:45:28.242Z,1
2022-07-29T19:47:11.924Z,1
2022-07-29T19:48:55.620Z,0
2022-07-29T19:50:39.316Z,1
2022-07-29T19:52:23.027Z,1
2022-07-29T19:54:06.726Z,1
2022-07-29T19:55:50.425Z,1
2022-07-29T19:57:34.129Z,0
2022-07-29T19:59:17.840Z,0
2022-07-29T20:01:01.533Z,1
2022-07-29T20:02:45.250Z,0
2022-07-29T20:04:28.940Z,1
2022-07-29T20:06:12.638Z,0
2022-07-29T20:07:56.332Z,1
2022-07-29T20:09:40.036Z,0
2022-07-29T20:11:23.741Z,1
2022-07-29T20:13:07.440Z,1
2022-07-29T20:14:51.149Z,1
2022-07-29T20:16:34.849Z,1
2022-07-29T20:18:18.552Z,1
2022-07-29T20:20:02.260Z,0
2022-07-29T20:21:45.951Z,8
2022-07-29T20:23:29.660Z,9
2022-07-29T20:25:13.364Z,9
2022-07-29T20:26:57.057Z,9
2022-07-29T20:28:40.772Z,9
2022-07-29T20:30:24.484Z,8
2022-07-29T20:32:08.159Z,9
2022-07-29T20:33:51.865Z,9
2022-07-29T20:35:35.572Z,9
2022-07-29T20:37:19.271Z,8
2022-07-29T20:39:02.984Z,9
2022-07-29T20:40:46.679Z,9
2022-07-29T20:42:30.406Z,9
2022-07-29T20:44:14.115Z,9
2022-07-29T20:45:57.787Z,8
2022-07-29T20:47:41.492Z,8
2022-07-29T20:49:25.196Z,9
2022-07-29T20:51:08.891Z,8
2022-07-29T20:52:52.602Z,9
2022-07-29T20:54:36.312Z,8
2022-07-29T20:56:20.019Z,3
2022-07-29T20:58:03.709Z,2
2022-07-29T20:59:47.398Z,2
2022-07-29T21:01:31.108Z,3
2022-07-29T21:03:14.813Z,3
2022-07-29T21:04:58.512Z,3
2022-07-29T21:06:42.214Z,3
2022-07-29T21:08:25.916Z,1
2022-07-29T21:10:09.626Z,3
2022-07-29T21:11:53.342Z,3
2022-07-29T21:13:37.015Z,3
2022-07-29T21:15:20.741Z,3
2022-07-29T21:17:04.432Z,2
2022-07-29T21:20:31.828Z,3
2022-07-29T21:22:15.544Z,3
2022-07-29T21:23:59.228Z,1
2022-07-29T21:25:42.926Z,1
2022-07-29T21:27:26.643Z,1
2022-07-29T21:29:10.336Z,0
2022-07-29T21:30:54.049Z,1
2022-07-29T21:32:37.749Z,1
2022-07-29T21:34:21.441Z,1
2022-07-29T21:36:05.147Z,0
2022-07-29T21:37:48.843Z,1
2022-07-29T21:39:32.545Z,1
2022-07-29T21:41:16.249Z,1
2022-07-29T21:42:59.941Z,1
2022-07-29T21:44:43.654Z,1
2022-07-29T21:46:27.348Z,1
2022-07-29T21:48:11.056Z,0
2022-07-29T21:49:54.753Z,1
2022-07-29T21:51:38.449Z,1
2022-07-29T21:53:22.161Z,0
2022-07-29T21:55:05.863Z,2
2022-07-29T21:56:49.565Z,1
2022-07-29T21:58:33.261Z,1
2022-07-29T22:00:16.968Z,1
2022-07-29T22:02:00.668Z,1
2022-07-29T22:03:44.371Z,1
2022-07-29T22:05:28.067Z,2
2022-07-29T22:07:11.772Z,0
2022-07-29T22:08:55.479Z,2
2022-07-29T22:10:39.175Z,1
2022-07-29T22:12:22.891Z,0
2022-07-29T22:14:06.603Z,0
2022-07-29T22:15:50.286Z,1
2022-07-29T22:17:33.979Z,0
2022-07-29T22:19:17.680Z,1
2022-07-29T22:21:01.378Z,0
2022-07-29T22:22:45.086Z,1
2022-07-29T22:24:28.786Z,1
2022-07-29T22:26:12.490Z,0
2022-07-29T22:27:56.202Z,0
2022-07-29T22:29:39.891Z,1
2022-07-29T22:31:23.596Z,1
2022-07-29T22:33:07.304Z,1
2022-07-29T22:34:51.015Z,1
2022-07-29T22:36:34.704Z,1
2022-07-29T22:38:18.402Z,1
2022-07-29T22:40:02.103Z,0
2022-07-29T22:41:45.810Z,1
2022-07-29T22:43:29.503Z,0
2022-07-29T22:45:13.210Z,0
2022-07-29T22:46:56.914Z,1
2022-07-29T22:48:40.601Z,0
2022-07-29T22:50:24.315Z,0
2022-07-29T22:52:08.022Z,0
2022-07-29T22:53:51.715Z,1
2022-07-29T22:55:35.414Z,1
2022-07-29T22:57:19.123Z,1
2022-07-29T22:59:02.824Z,0
2022-07-29T23:00:46.530Z,1
2022-07-29T23:02:30.220Z,1
2022-07-29T23:04:13.941Z,1
2022-07-29T23:05:57.626Z,0
2022-07-29T23:07:41.355Z,1
2022-07-29T23:09:25.025Z,1
2022-07-29T23:11:08.735Z,0
2022-07-29T23:12:52.425Z,1
2022-07-29T23:14:36.131Z,1
2022-07-29T23:16:19.835Z,2
2022-07-29T23:18:03.542Z,1
2022-07-29T23:19:47.246Z,1
2022-07-29T23:21:30.940Z,1
2022-07-29T23:23:14.645Z,1
2022-07-29T23:24:58.351Z,1
2022-07-29T23:26:42.049Z,0
2022-07-29T23:28:25.739Z,1
2022-07-29T23:30:09.459Z,0
2022-07-29T23:31:53.141Z,1
2022-07-29T23:33:36.852Z,0
2022-07-29T23:35:20.554Z,0
2022-07-29T23:37:04.260Z,0
2022-07-29T23:38:47.974Z,1
2022-07-29T23:40:31.649Z,1
2022-07-29T23:42:15.376Z,1
2022-07-29T23:43:59.067Z,1
2022-07-29T23:45:42.763Z,0
2022-07-29T23:47:26.461Z,0
2022-07-29T23:49:10.162Z,1
2022-07-29T23:50:53.862Z,1
2022-07-29T23:52:37.575Z,0
2022-07-29T23:54:21.272Z,1
2022-07-29T23:56:04.973Z,1
2022-07-29T23:57:48.677Z,1
2022-07-29T23:59:32.374Z,1
